aviador You're here:

ZMUB Decoded Metar

ULAN BATOR in MONGOLIA
Report Time2017-07-26 22:30:00
UTC Time2017-07-26 22:36:17
Flight Rules vfr VFR
Wind100° at 4 kt
W.Decomp.*RWY 14: 3.2 kt HW 2.4 kt LCW
RWY 15: 2.7 kt HW 2.9 kt LCW
W.Rank100° ranks 35
Current wind is below 100° avg. (5.3)
Visibility9999 m
Phenomena:N/A
Clouds:N/A
Expected CloudBase > 1,200 ft AGL from Temp-Dew spread
CeilingNone
Temp10°C (ISA +4)
Dew Point07°C (82% RH)
AAT7.9°C
QNH1016 hPa
Density Alt4,846 ft
Elevation4,364 ft
Report Wrong Elevation
Raw Report
ZMUB 262230Z 10002MPS CAVOK 10/07 Q1016 NOSIG RMK QFE654.6 85=

Extra information for ZMUB:More info

Metar Taf Metar & Taf Last 4 Metars F.Rules Stats Wind Profile Meteogram Temp Stats Airport Information Weather charts Add Link Nearby VenuesMetar ALERT Operation Metar Decoded Social comments